Time;durP1;ratioP1;P1;durP2;ratioP2;P2;SDS_P1;SDS_P2;PMS_P1;PMS_P2;Temp;Humidity;BMP_temperature;BMP_pressure;BME280_temperature;BME280_humidity;BME280_pressure;Samples;Min_cycle;Max_cycle;Signal;HPM_P1;HPM_P2
2022/04/18 00:01:51;;;;;;;3.10;2.27;;;;;;;;;;5076038;28;20835;-78
2022/04/18 00:04:19;;;;;;;2.70;2.47;;;;;;;;;;5067683;28;20295;-78
2022/04/18 00:06:44;;;;;;;6.27;3.67;;;;;;;;;;5074333;28;20274;-78
2022/04/18 00:09:10;;;;;;;19.73;11.10;;;;;;;;;;5065397;28;20708;-77
2022/04/18 00:11:35;;;;;;;26.83;15.70;;;;;;;;;;5061412;28;20313;-78
2022/04/18 00:14:01;;;;;;;19.17;10.60;;;;;;;;;;5062289;28;20317;-78
2022/04/18 00:16:28;;;;;;;8.67;5.77;;;;;;;;;;5066758;28;20215;-77
2022/04/18 00:18:56;;;;;;;4.00;3.10;;;;;;;;;;5040073;28;20356;-77
2022/04/18 00:21:23;;;;;;;3.80;3.00;;;;;;;;;;5063692;28;20998;-78
2022/04/18 00:23:51;;;;;;;2.53;2.10;;;;;;;;;;5064329;28;20747;-78
2022/04/18 00:26:16;;;;;;;2.10;1.90;;;;;;;;;;5068077;28;20215;-78
2022/04/18 00:28:45;;;;;;;2.60;2.40;;;;;;;;;;5063263;28;20210;-78
2022/04/18 00:31:13;;;;;;;3.13;2.30;;;;;;;;;;5072146;28;20219;-78
2022/04/18 00:33:40;;;;;;;4.10;2.13;;;;;;;;;;5067673;28;20236;-78
2022/04/18 00:36:06;;;;;;;2.43;2.00;;;;;;;;;;5069438;28;20221;-78
2022/04/18 00:38:31;;;;;;;2.10;1.90;;;;;;;;;;5076596;28;20309;-78
2022/04/18 00:40:57;;;;;;;2.00;1.80;;;;;;;;;;5061529;28;20309;-78
2022/04/18 00:43:38;;;;;;;2.97;2.13;;;;;;;;;;5062210;28;20302;-78
2022/04/18 00:46:04;;;;;;;2.30;1.90;;;;;;;;;;5073686;28;20305;-78
2022/04/18 00:48:32;;;;;;;2.47;2.00;;;;;;;;;;5075911;28;20294;-78
2022/04/18 00:50:57;;;;;;;2.10;1.90;;;;;;;;;;5072794;28;20223;-79
2022/04/18 00:53:23;;;;;;;2.30;2.07;;;;;;;;;;5075892;28;20315;-78
2022/04/18 00:55:48;;;;;;;3.07;2.37;;;;;;;;;;5043311;28;20231;-77
2022/04/18 00:58:14;;;;;;;3.97;2.60;;;;;;;;;;5047873;28;20302;-78
2022/04/18 01:00:42;;;;;;;5.83;3.20;;;;;;;;;;5076601;28;20238;-77
2022/04/18 01:03:08;;;;;;;3.13;2.83;;;;;;;;;;5086314;28;20214;-77
2022/04/18 01:05:34;;;;;;;7.70;4.20;;;;;;;;;;5079702;28;20303;-77
2022/04/18 01:07:59;;;;;;;7.47;4.50;;;;;;;;;;5072496;28;20343;-77
2022/04/18 01:10:27;;;;;;;5.37;3.63;;;;;;;;;;5052834;28;20226;-78
2022/04/18 01:12:53;;;;;;;5.77;3.53;;;;;;;;;;5065655;28;20314;-79
2022/04/18 01:15:38;;;;;;;6.27;3.40;;;;;;;;;;5073307;28;20246;-79
2022/04/18 01:18:28;;;;;;;7.27;3.63;;;;;;;;;;5076254;28;20298;-79
2022/04/18 01:21:12;;;;;;;4.10;3.23;;;;;;;;;;5076201;28;20225;-79
2022/04/18 01:29:54;;;;;;;4.97;2.40;;;;;;;;;;5061584;28;20223;-79
2022/04/18 01:32:22;;;;;;;3.83;2.63;;;;;;;;;;5062385;28;20275;-78
2022/04/18 01:34:48;;;;;;;3.00;2.70;;;;;;;;;;5068565;28;20302;-79
2022/04/18 01:37:16;;;;;;;2.60;2.40;;;;;;;;;;5067610;28;20227;-79
2022/04/18 01:39:42;;;;;;;4.33;2.50;;;;;;;;;;5053418;28;20264;-78
2022/04/18 01:42:10;;;;;;;7.30;5.17;;;;;;;;;;5077168;28;20216;-78
2022/04/18 01:44:35;;;;;;;7.43;4.30;;;;;;;;;;5066224;28;20219;-78
2022/04/18 01:47:01;;;;;;;6.83;4.43;;;;;;;;;;5065640;28;20314;-79
2022/04/18 01:49:30;;;;;;;4.80;2.60;;;;;;;;;;5058175;28;20227;-79
2022/04/18 01:51:56;;;;;;;2.40;2.13;;;;;;;;;;5074732;28;20229;-79
2022/04/18 01:54:23;;;;;;;2.90;2.60;;;;;;;;;;5064240;28;20728;-78
2022/04/18 01:56:48;;;;;;;3.10;2.80;;;;;;;;;;5038829;28;20306;-79
2022/04/18 01:59:16;;;;;;;2.90;2.60;;;;;;;;;;5046198;28;20477;-79
2022/04/18 02:01:42;;;;;;;3.17;2.47;;;;;;;;;;5060390;28;20245;-78
2022/04/18 02:04:09;;;;;;;3.53;2.63;;;;;;;;;;5053508;28;20353;-78
2022/04/18 02:06:35;;;;;;;3.07;2.60;;;;;;;;;;5077340;28;20219;-77
2022/04/18 02:09:02;;;;;;;4.27;2.53;;;;;;;;;;5075369;28;20227;-78
2022/04/18 02:11:29;;;;;;;3.57;2.97;;;;;;;;;;5036242;28;20695;-79
2022/04/18 02:13:57;;;;;;;3.57;2.60;;;;;;;;;;5050598;28;20239;-79
2022/04/18 02:16:23;;;;;;;3.63;2.73;;;;;;;;;;5065979;28;20285;-78
2022/04/18 02:18:52;;;;;;;5.10;2.70;;;;;;;;;;5047738;28;20226;-79
2022/04/18 02:21:19;;;;;;;3.20;2.80;;;;;;;;;;5073053;28;20245;-79
2022/04/18 02:23:45;;;;;;;5.10;2.97;;;;;;;;;;5065411;28;20268;-79
2022/04/18 02:26:11;;;;;;;4.20;2.93;;;;;;;;;;5067412;28;20215;-78
2022/04/18 02:28:38;;;;;;;3.73;2.73;;;;;;;;;;5073800;28;20215;-78
2022/04/18 02:31:08;;;;;;;3.57;2.70;;;;;;;;;;5052622;28;20260;-78
2022/04/18 02:33:34;;;;;;;4.27;2.80;;;;;;;;;;5068120;28;20226;-78
2022/04/18 02:36:01;;;;;;;3.57;2.80;;;;;;;;;;5071720;28;20298;-77
2022/04/18 02:38:27;;;;;;;4.20;2.80;;;;;;;;;;5069232;28;20220;-76
2022/04/18 02:40:53;;;;;;;4.33;2.90;;;;;;;;;;5074251;28;20688;-77
2022/04/18 02:43:25;;;;;;;3.63;2.90;;;;;;;;;;5063414;28;20279;-77
2022/04/18 02:45:56;;;;;;;4.63;3.30;;;;;;;;;;5017541;23;20282;-77
2022/04/18 02:48:43;;;;;;;3.93;3.10;;;;;;;;;;5018841;28;20216;-78
2022/04/18 02:51:13;;;;;;;4.43;3.20;;;;;;;;;;4992424;28;20216;-78
2022/04/18 02:53:42;;;;;;;3.40;2.90;;;;;;;;;;5013536;28;20229;-78
2022/04/18 02:56:10;;;;;;;4.50;3.47;;;;;;;;;;5007621;28;20221;-77
2022/04/18 02:58:44;;;;;;;3.93;3.20;;;;;;;;;;5004361;28;20232;-78
2022/04/18 03:01:09;;;;;;;4.17;3.70;;;;;;;;;;5022159;28;20231;-77
2022/04/18 03:03:41;;;;;;;3.93;2.97;;;;;;;;;;4989227;28;20316;-78
2022/04/18 03:06:06;;;;;;;3.77;3.10;;;;;;;;;;4996162;28;20217;-78
2022/04/18 03:08:35;;;;;;;5.67;4.70;;;;;;;;;;5005116;28;20222;-77
2022/04/18 03:11:05;;;;;;;6.27;4.80;;;;;;;;;;5006177;28;20648;-78
2022/04/18 03:13:36;;;;;;;8.20;4.53;;;;;;;;;;5012222;28;20228;-78
2022/04/18 03:16:08;;;;;;;5.80;4.63;;;;;;;;;;5005886;28;20225;-77
2022/04/18 03:18:34;;;;;;;7.27;4.83;;;;;;;;;;4976876;28;20217;-76
2022/04/18 03:21:00;;;;;;;5.63;4.27;;;;;;;;;;4988019;28;20270;-76
2022/04/18 03:23:26;;;;;;;5.13;3.80;;;;;;;;;;5001121;28;20238;-77
2022/04/18 03:26:10;;;;;;;5.77;4.40;;;;;;;;;;5007998;28;20224;-78
2022/04/18 03:28:46;;;;;;;5.20;4.17;;;;;;;;;;4996687;28;20372;-78
2022/04/18 03:31:12;;;;;;;4.17;3.40;;;;;;;;;;5000485;28;20220;-77
2022/04/18 03:33:38;;;;;;;4.20;3.30;;;;;;;;;;5026747;28;20701;-78
2022/04/18 03:41:46;;;;;;;4.77;3.40;;;;;;;;;;5018344;28;20219;-77
2022/04/18 03:44:15;;;;;;;4.17;3.30;;;;;;;;;;5006701;28;20217;-79
2022/04/18 03:46:41;;;;;;;4.03;3.57;;;;;;;;;;5016774;28;20260;-79
2022/04/18 03:49:09;;;;;;;5.83;4.10;;;;;;;;;;5027509;28;20269;-79
2022/04/18 03:51:37;;;;;;;4.70;3.77;;;;;;;;;;4993012;28;20218;-79
2022/04/18 03:54:04;;;;;;;4.17;3.63;;;;;;;;;;5001410;28;20220;-79
2022/04/18 03:56:33;;;;;;;6.47;4.30;;;;;;;;;;5005843;28;20227;-79
2022/04/18 03:59:07;;;;;;;7.00;4.10;;;;;;;;;;5017224;28;20327;-79
2022/04/18 04:01:43;;;;;;;4.73;4.03;;;;;;;;;;5009940;28;20280;-79
2022/04/18 04:04:10;;;;;;;5.30;3.90;;;;;;;;;;5018518;28;20217;-79
2022/04/18 04:06:37;;;;;;;4.23;3.83;;;;;;;;;;5021312;28;20219;-78
2022/04/18 04:09:05;;;;;;;8.37;4.07;;;;;;;;;;5023637;28;20228;-77
2022/04/18 04:11:33;;;;;;;5.80;4.30;;;;;;;;;;5019275;28;20227;-77
2022/04/18 04:13:59;;;;;;;4.77;4.27;;;;;;;;;;5010460;28;20232;-77
2022/04/18 04:16:25;;;;;;;5.90;4.20;;;;;;;;;;5013359;28;20242;-77
2022/04/18 04:18:54;;;;;;;6.73;4.43;;;;;;;;;;5001089;28;20296;-77
2022/04/18 04:21:22;;;;;;;6.73;4.27;;;;;;;;;;5011664;28;20232;-79
2022/04/18 04:23:53;;;;;;;5.80;4.17;;;;;;;;;;5003063;28;20232;-79
2022/04/18 04:26:30;;;;;;;6.33;4.83;;;;;;;;;;5007105;28;20635;-79
2022/04/18 04:28:57;;;;;;;6.30;4.20;;;;;;;;;;5035232;28;20247;-79
2022/04/18 04:31:38;;;;;;;5.40;4.30;;;;;;;;;;4987737;28;20225;-79
2022/04/18 04:34:03;;;;;;;5.33;4.07;;;;;;;;;;5014792;28;20252;-79
2022/04/18 04:36:37;;;;;;;5.43;4.30;;;;;;;;;;5007055;28;20225;-79
2022/04/18 04:39:02;;;;;;;5.00;4.37;;;;;;;;;;5014132;28;20620;-78
2022/04/18 04:41:38;;;;;;;5.00;4.07;;;;;;;;;;5002358;28;20235;-78
2022/04/18 04:44:07;;;;;;;6.90;4.80;;;;;;;;;;5001530;28;20226;-79
2022/04/18 04:47:04;;;;;;;7.33;4.67;;;;;;;;;;5022043;28;20225;-78
2022/04/18 04:49:31;;;;;;;5.17;4.40;;;;;;;;;;4988879;28;20316;-78
2022/04/18 04:52:14;;;;;;;7.43;5.47;;;;;;;;;;5015230;28;20311;-79
2022/04/18 04:54:44;;;;;;;5.53;4.80;;;;;;;;;;5012620;28;20272;-79
2022/04/18 04:57:16;;;;;;;6.67;4.83;;;;;;;;;;5011634;28;20247;-78
2022/04/18 05:00:16;;;;;;;5.90;4.63;;;;;;;;;;5019640;28;20264;-79
2022/04/18 05:03:08;;;;;;;7.13;4.20;;;;;;;;;;5016577;28;20224;-79
2022/04/18 05:05:37;;;;;;;5.27;4.10;;;;;;;;;;5028020;28;20606;-79
2022/04/18 05:08:10;;;;;;;6.37;4.50;;;;;;;;;;5012874;28;20240;-78
2022/04/18 05:10:36;;;;;;;5.97;4.30;;;;;;;;;;5018999;28;20373;-76
2022/04/18 05:13:10;;;;;;;6.77;4.70;;;;;;;;;;4988340;28;20310;-77
2022/04/18 05:15:36;;;;;;;5.00;4.23;;;;;;;;;;5008759;28;20221;-77
2022/04/18 05:18:19;;;;;;;7.07;4.17;;;;;;;;;;5019185;28;20224;-77
2022/04/18 05:20:47;;;;;;;5.83;4.37;;;;;;;;;;5009349;28;20239;-77
2022/04/18 05:23:20;;;;;;;6.50;4.30;;;;;;;;;;4991937;28;20301;-77
2022/04/18 05:25:50;;;;;;;7.30;4.27;;;;;;;;;;4997135;28;20223;-77
2022/04/18 05:28:15;;;;;;;5.30;4.80;;;;;;;;;;5016555;28;20217;-77
2022/04/18 05:30:47;;;;;;;5.73;4.70;;;;;;;;;;5020199;28;20229;-78
2022/04/18 05:33:13;;;;;;;6.03;4.40;;;;;;;;;;5016820;28;20583;-77
2022/04/18 05:36:01;;;;;;;6.40;4.33;;;;;;;;;;5011601;28;20221;-76
2022/04/18 05:38:32;;;;;;;5.53;4.50;;;;;;;;;;5004657;28;20280;-77
2022/04/18 05:41:04;;;;;;;6.47;5.03;;;;;;;;;;5001594;28;20228;-78
2022/04/18 05:43:33;;;;;;;7.20;5.70;;;;;;;;;;5016491;28;20232;-78
2022/04/18 05:46:00;;;;;;;7.40;6.03;;;;;;;;;;5009999;28;20255;-77
2022/04/18 05:48:26;;;;;;;5.90;5.30;;;;;;;;;;5003806;28;20299;-78
2022/04/18 05:50:54;;;;;;;6.97;6.27;;;;;;;;;;5001960;28;20237;-77
2022/04/18 05:53:29;;;;;;;7.57;6.53;;;;;;;;;;5009991;28;20695;-78
2022/04/18 05:56:05;;;;;;;9.50;7.90;;;;;;;;;;5026938;28;20219;-77
2022/04/18 05:58:44;;;;;;;9.93;8.10;;;;;;;;;;5001263;28;20282;-78
2022/04/18 06:01:32;;;;;;;9.73;8.47;;;;;;;;;;5007309;28;20308;-78
2022/04/18 06:04:08;;;;;;;9.33;8.23;;;;;;;;;;5010629;28;20276;-78
2022/04/18 06:06:36;;;;;;;10.67;8.30;;;;;;;;;;5015521;28;20217;-79
2022/04/18 06:09:05;;;;;;;10.07;7.87;;;;;;;;;;4996496;28;20248;-79
2022/04/18 06:11:31;;;;;;;8.17;7.27;;;;;;;;;;4996052;28;20224;-79
2022/04/18 06:14:17;;;;;;;12.07;7.70;;;;;;;;;;5016051;28;20230;-79
2022/04/18 06:16:46;;;;;;;10.13;6.90;;;;;;;;;;5002552;28;20690;-78
2022/04/18 06:19:17;;;;;;;8.23;7.37;;;;;;;;;;4995228;28;20221;-79
2022/04/18 06:21:42;;;;;;;9.30;7.23;;;;;;;;;;4983247;28;20689;-79
2022/04/18 06:24:09;;;;;;;8.00;6.87;;;;;;;;;;5013413;28;20231;-79
2022/04/18 06:26:55;;;;;;;7.50;6.67;;;;;;;;;;4986521;28;20219;-79
2022/04/18 06:29:21;;;;;;;8.23;7.00;;;;;;;;;;5004953;28;20232;-79
2022/04/18 06:31:53;;;;;;;10.17;7.07;;;;;;;;;;4986161;28;20884;-79
2022/04/18 06:34:20;;;;;;;8.93;6.67;;;;;;;;;;5010651;28;20224;-78
2022/04/18 06:36:50;;;;;;;7.50;6.33;;;;;;;;;;4985347;28;20300;-78
2022/04/18 06:39:24;;;;;;;9.40;6.13;;;;;;;;;;5005673;28;20309;-78
2022/04/18 06:42:00;;;;;;;8.27;6.20;;;;;;;;;;5006211;28;20217;-79
2022/04/18 06:44:30;;;;;;;6.83;6.13;;;;;;;;;;4989833;28;20308;-79
2022/04/18 06:47:02;;;;;;;8.10;6.53;;;;;;;;;;5007150;28;20225;-80
2022/04/18 06:49:48;;;;;;;7.47;6.33;;;;;;;;;;5013644;28;20332;-80
2022/04/18 06:52:44;;;;;;;7.33;5.97;;;;;;;;;;5012025;28;20235;-79
2022/04/18 06:56:58;;;;;;;6.23;5.63;;;;;;;;;;5008975;28;20718;-78
2022/04/18 06:58:19;;;;;;;8.37;6.00;;;;;;;;;;5016311;28;20229;-79
2022/04/18 07:00:44;;;;;;;7.60;6.57;;;;;;;;;;5012945;28;20220;-78
2022/04/18 07:03:15;;;;;;;7.83;6.00;;;;;;;;;;5003669;28;20225;-79
2022/04/18 07:05:41;;;;;;;7.03;5.40;;;;;;;;;;5001551;28;20213;-78
2022/04/18 07:08:10;;;;;;;7.60;6.00;;;;;;;;;;4988749;28;20252;-79
2022/04/18 07:10:40;;;;;;;7.33;5.63;;;;;;;;;;5006038;28;20225;-79
2022/04/18 07:13:08;;;;;;;6.83;5.97;;;;;;;;;;4996396;28;20233;-79
2022/04/18 07:15:38;;;;;;;8.20;6.17;;;;;;;;;;5012982;28;20224;-77
2022/04/18 07:18:05;;;;;;;5.93;5.33;;;;;;;;;;5000298;28;20220;-78
2022/04/18 07:20:33;;;;;;;7.30;5.90;;;;;;;;;;5013263;28;20241;-78
2022/04/18 07:22:59;;;;;;;7.57;5.80;;;;;;;;;;4994156;28;20225;-77
2022/04/18 07:25:34;;;;;;;6.80;6.10;;;;;;;;;;5012962;28;20221;-77
2022/04/18 07:28:18;;;;;;;7.43;5.80;;;;;;;;;;5014935;28;20231;-77
2022/04/18 07:30:46;;;;;;;7.60;6.03;;;;;;;;;;5007934;28;20244;-78
2022/04/18 07:33:14;;;;;;;6.97;5.60;;;;;;;;;;4986234;28;20230;-79
2022/04/18 07:35:45;;;;;;;7.03;5.50;;;;;;;;;;5003970;28;20220;-79
2022/04/18 07:41:04;;;;;;;6.43;5.40;;;;;;;;;;5001806;28;20217;-77
2022/04/18 07:43:34;;;;;;;6.50;5.53;;;;;;;;;;4977944;28;20228;-77
2022/04/18 07:46:02;;;;;;;6.53;5.77;;;;;;;;;;5008573;28;20220;-78
2022/04/18 07:48:31;;;;;;;6.60;5.73;;;;;;;;;;4991423;28;20249;-78
2022/04/18 07:53:41;;;;;;;6.10;5.20;;;;;;;;;;5018362;28;20237;-79
2022/04/18 07:56:09;;;;;;;5.87;5.27;;;;;;;;;;4992978;28;20221;-78
2022/04/18 07:58:37;;;;;;;7.27;5.80;;;;;;;;;;4996098;28;20222;-78
2022/04/18 08:01:11;;;;;;;5.93;5.33;;;;;;;;;;5008740;28;20215;-78
2022/04/18 08:03:39;;;;;;;7.33;5.80;;;;;;;;;;5016867;28;20232;-77
2022/04/18 08:06:05;;;;;;;7.27;5.77;;;;;;;;;;5021571;28;20216;-79
2022/04/18 08:08:47;;;;;;;6.83;5.67;;;;;;;;;;5026589;28;20223;-78
2022/04/18 08:11:18;;;;;;;7.33;5.43;;;;;;;;;;5021303;28;20232;-76
2022/04/18 08:13:50;;;;;;;6.13;5.47;;;;;;;;;;5024870;28;20235;-78
2022/04/18 08:16:36;;;;;;;6.20;5.60;;;;;;;;;;5031900;28;20227;-78
2022/04/18 08:19:10;;;;;;;7.37;6.17;;;;;;;;;;5013193;28;20229;-78
2022/04/18 08:21:36;;;;;;;6.47;5.87;;;;;;;;;;5028170;28;20224;-77
2022/04/18 08:24:04;;;;;;;6.93;5.40;;;;;;;;;;5010220;28;20232;-77
2022/04/18 08:26:32;;;;;;;5.90;5.30;;;;;;;;;;5028502;28;20216;-78
2022/04/18 08:29:07;;;;;;;6.90;6.20;;;;;;;;;;5018795;28;20220;-78
2022/04/18 08:31:40;;;;;;;7.30;6.07;;;;;;;;;;5026347;28;20216;-78
2022/04/18 08:34:13;;;;;;;6.87;5.97;;;;;;;;;;5006773;28;20235;-79
2022/04/18 08:36:38;;;;;;;7.03;6.23;;;;;;;;;;5007797;28;20307;-79
2022/04/18 08:39:11;;;;;;;6.53;5.83;;;;;;;;;;5001104;28;20651;-79
2022/04/18 08:42:00;;;;;;;6.90;5.60;;;;;;;;;;5003226;28;20218;-79
2022/04/18 08:44:34;;;;;;;5.97;5.37;;;;;;;;;;5000619;28;20221;-80
2022/04/18 08:47:00;;;;;;;5.83;5.23;;;;;;;;;;5008990;28;20216;-79
2022/04/18 08:52:57;;;;;;;6.20;5.07;;;;;;;;;;5014730;28;20295;-79
2022/04/18 08:55:10;;;;;;;5.77;5.17;;;;;;;;;;5006535;28;20225;-79
2022/04/18 08:57:37;;;;;;;5.90;5.30;;;;;;;;;;5001627;28;20244;-80
2022/04/18 09:00:06;;;;;;;5.37;4.83;;;;;;;;;;5014914;28;20240;-79
2022/04/18 09:02:37;;;;;;;6.33;5.30;;;;;;;;;;5013452;28;20224;-79
2022/04/18 09:05:17;;;;;;;5.10;4.50;;;;;;;;;;4998874;28;20682;-79
2022/04/18 09:07:44;;;;;;;5.03;4.33;;;;;;;;;;5003029;28;20244;-79
2022/04/18 09:10:11;;;;;;;5.03;4.43;;;;;;;;;;4984808;28;20231;-79
2022/04/18 09:12:40;;;;;;;5.07;4.20;;;;;;;;;;5019408;28;20262;-77
2022/04/18 09:15:40;;;;;;;5.30;4.17;;;;;;;;;;5005337;28;20216;-77
2022/04/18 09:18:11;;;;;;;5.17;4.53;;;;;;;;;;5002444;28;20220;-78
2022/04/18 09:20:50;;;;;;;6.68;4.45;;;;;;;;;;4997875;28;20304;-77
2022/04/18 09:23:32;;;;;;;5.90;4.05;;;;;;;;;;5001903;28;20231;-79
2022/04/18 09:26:22;;;;;;;4.73;4.00;;;;;;;;;;4995683;28;20221;-78
2022/04/18 09:28:48;;;;;;;4.57;4.17;;;;;;;;;;5003675;28;20271;-79
2022/04/18 09:31:17;;;;;;;5.78;4.57;;;;;;;;;;4997212;28;20292;-79
2022/04/18 09:33:44;;;;;;;4.43;4.03;;;;;;;;;;4988851;28;20655;-78
2022/04/18 09:36:18;;;;;;;4.32;3.90;;;;;;;;;;4998181;28;20364;-80
2022/04/18 09:38:56;;;;;;;5.27;4.27;;;;;;;;;;4989941;28;20217;-79
2022/04/18 09:41:41;;;;;;;4.32;3.92;;;;;;;;;;4997300;28;20213;-80
2022/04/18 09:44:29;;;;;;;3.60;3.30;;;;;;;;;;5008042;28;20227;-79
2022/04/18 09:47:05;;;;;;;4.18;3.78;;;;;;;;;;5017684;28;20307;-77
2022/04/18 09:49:40;;;;;;;5.68;4.10;;;;;;;;;;4989741;28;20711;-78
2022/04/18 09:52:12;;;;;;;5.63;3.45;;;;;;;;;;4999987;28;20217;-80
2022/04/18 09:54:51;;;;;;;4.15;3.75;;;;;;;;;;4987643;28;20232;-80
2022/04/18 09:57:27;;;;;;;4.50;3.95;;;;;;;;;;4999032;28;20233;-80
2022/04/18 09:59:54;;;;;;;4.63;4.18;;;;;;;;;;5000206;28;20221;-80
2022/04/18 10:02:22;;;;;;;4.47;3.95;;;;;;;;;;4998951;28;20217;-79
2022/04/18 10:04:51;;;;;;;4.38;3.22;;;;;;;;;;5006437;28;20321;-79
2022/04/18 10:07:16;;;;;;;5.00;4.10;;;;;;;;;;4996165;28;20226;-79
2022/04/18 10:09:44;;;;;;;4.32;3.92;;;;;;;;;;5008597;28;20213;-78
2022/04/18 10:12:11;;;;;;;5.10;3.58;;;;;;;;;;4996759;28;20691;-79
2022/04/18 10:14:40;;;;;;;4.20;3.80;;;;;;;;;;4998023;28;20590;-77
2022/04/18 10:17:10;;;;;;;5.55;4.05;;;;;;;;;;5007540;28;20228;-78
2022/04/18 10:20:06;;;;;;;4.35;3.83;;;;;;;;;;5012736;28;20241;-78
2022/04/18 10:22:53;;;;;;;6.18;4.22;;;;;;;;;;5010065;28;20657;-78
2022/04/18 10:25:42;;;;;;;4.75;3.92;;;;;;;;;;4996247;28;20597;-79
2022/04/18 10:28:20;;;;;;;4.25;3.50;;;;;;;;;;5007034;28;20217;-78
2022/04/18 10:30:56;;;;;;;4.57;3.30;;;;;;;;;;4980148;28;20228;-77
2022/04/18 10:33:22;;;;;;;4.00;3.50;;;;;;;;;;5015872;28;20355;-79
2022/04/18 10:35:51;;;;;;;3.72;3.03;;;;;;;;;;4964908;28;20221;-79
2022/04/18 10:38:25;;;;;;;3.70;3.28;;;;;;;;;;4996617;28;20702;-79
2022/04/18 10:40:51;;;;;;;4.22;3.00;;;;;;;;;;5000979;28;20312;-79
2022/04/18 10:43:18;;;;;;;3.90;3.25;;;;;;;;;;4980335;28;20248;-78
2022/04/18 10:45:44;;;;;;;3.88;3.50;;;;;;;;;;4995218;28;20230;-80
2022/04/18 10:48:10;;;;;;;4.18;3.38;;;;;;;;;;5012444;28;20221;-79
2022/04/18 10:50:42;;;;;;;3.97;3.40;;;;;;;;;;4992044;28;20236;-79
2022/04/18 10:53:20;;;;;;;3.22;2.92;;;;;;;;;;5002815;28;20233;-79
2022/04/18 10:55:51;;;;;;;3.33;2.55;;;;;;;;;;5019178;28;20235;-77
2022/04/18 10:58:27;;;;;;;3.30;2.70;;;;;;;;;;5016923;28;20224;-78
2022/04/18 11:00:58;;;;;;;3.10;2.80;;;;;;;;;;5005841;28;20228;-78
2022/04/18 11:03:43;;;;;;;3.55;2.97;;;;;;;;;;5014487;28;20229;-77
2022/04/18 11:06:17;;;;;;;4.90;3.30;;;;;;;;;;4999263;28;20344;-79
2022/04/18 11:09:07;;;;;;;3.45;3.15;;;;;;;;;;4996312;28;20549;-79
2022/04/18 11:11:36;;;;;;;4.57;3.50;;;;;;;;;;5001380;28;20224;-79
2022/04/18 11:14:12;;;;;;;4.25;3.40;;;;;;;;;;5010942;28;20224;-80
2022/04/18 11:16:46;;;;;;;3.97;3.47;;;;;;;;;;5016270;28;20304;-79
2022/04/18 11:19:14;;;;;;;3.13;2.83;;;;;;;;;;5018134;28;20233;-78
2022/04/18 11:21:55;;;;;;;4.13;3.25;;;;;;;;;;5012171;28;20723;-80
2022/04/18 11:24:42;;;;;;;3.45;3.10;;;;;;;;;;4999297;28;20239;-79
2022/04/18 11:27:12;;;;;;;3.75;2.90;;;;;;;;;;5004746;28;20247;-80
2022/04/18 11:29:44;;;;;;;3.10;2.80;;;;;;;;;;5002955;28;20219;-78
2022/04/18 11:32:09;;;;;;;3.30;2.70;;;;;;;;;;4993914;28;20714;-78
2022/04/18 11:34:35;;;;;;;3.08;2.78;;;;;;;;;;4995436;28;20216;-77
2022/04/18 11:37:03;;;;;;;2.95;2.65;;;;;;;;;;4996257;28;20221;-78
2022/04/18 11:39:45;;;;;;;4.55;2.65;;;;;;;;;;4996975;28;20232;-79
2022/04/18 11:42:16;;;;;;;3.83;2.53;;;;;;;;;;4996901;28;20712;-80
2022/04/18 11:44:42;;;;;;;3.25;2.50;;;;;;;;;;5003416;28;20223;-80
2022/04/18 11:47:12;;;;;;;2.95;2.60;;;;;;;;;;5012518;28;20240;-79
2022/04/18 11:49:40;;;;;;;3.00;2.70;;;;;;;;;;5002792;28;20225;-79
2022/04/18 11:52:06;;;;;;;3.08;2.78;;;;;;;;;;4966866;28;20225;-79
2022/04/18 11:54:32;;;;;;;2.92;2.63;;;;;;;;;;4993159;28;20259;-78
2022/04/18 11:57:01;;;;;;;3.03;2.72;;;;;;;;;;5001748;28;20335;-78
2022/04/18 11:59:30;;;;;;;3.47;2.90;;;;;;;;;;5018499;28;20221;-78
2022/04/18 12:07:28;;;;;;;2.97;2.40;;;;;;;;;;4989538;28;20220;-80
2022/04/18 12:09:54;;;;;;;3.92;2.70;;;;;;;;;;5015992;28;20229;-79
2022/04/18 12:12:28;;;;;;;3.03;2.40;;;;;;;;;;5003544;28;20225;-78
2022/04/18 12:14:59;;;;;;;2.22;1.90;;;;;;;;;;4999984;28;20225;-80
2022/04/18 12:17:24;;;;;;;2.20;2.00;;;;;;;;;;5028906;28;20270;-80
2022/04/18 12:19:52;;;;;;;2.33;2.00;;;;;;;;;;5009149;28;20237;-80
2022/04/18 12:22:22;;;;;;;2.33;2.00;;;;;;;;;;5013662;28;20272;-80
2022/04/18 12:24:49;;;;;;;2.78;2.30;;;;;;;;;;4998400;28;20737;-79
2022/04/18 12:27:17;;;;;;;2.30;2.10;;;;;;;;;;5000407;28;20221;-79
2022/04/18 12:29:44;;;;;;;2.45;2.25;;;;;;;;;;5002892;28;20711;-78
2022/04/18 12:32:28;;;;;;;2.58;2.13;;;;;;;;;;5020907;28;20296;-78
2022/04/18 12:34:56;;;;;;;2.42;2.22;;;;;;;;;;5019620;28;20299;-78
2022/04/18 12:37:25;;;;;;;2.70;2.10;;;;;;;;;;5028037;28;20233;-79
2022/04/18 12:40:13;;;;;;;4.03;2.10;;;;;;;;;;5035946;28;20341;-79
2022/04/18 12:42:47;;;;;;;2.80;2.05;;;;;;;;;;5025539;28;20229;-79
2022/04/18 12:45:15;;;;;;;2.10;1.90;;;;;;;;;;5032149;28;20224;-80
2022/04/18 12:47:41;;;;;;;2.65;2.20;;;;;;;;;;5009688;28;20236;-81
2022/04/18 12:50:11;;;;;;;3.53;2.25;;;;;;;;;;5017108;28;20233;-82
2022/04/18 12:52:50;;;;;;;2.92;2.10;;;;;;;;;;5008057;28;20245;-80
2022/04/18 12:55:30;;;;;;;3.50;2.30;;;;;;;;;;5000510;28;20240;-80
2022/04/18 12:57:56;;;;;;;3.13;2.10;;;;;;;;;;5000115;28;20217;-80
2022/04/18 13:00:24;;;;;;;2.70;2.00;;;;;;;;;;5000482;28;20222;-79
2022/04/18 13:03:00;;;;;;;2.20;2.00;;;;;;;;;;4984453;28;20301;-79
2022/04/18 13:05:32;;;;;;;3.45;2.10;;;;;;;;;;4998512;28;20245;-78
2022/04/18 13:08:06;;;;;;;2.70;2.20;;;;;;;;;;4986343;28;20237;-79
2022/04/18 13:10:33;;;;;;;3.47;2.28;;;;;;;;;;4988701;28;20228;-80
2022/04/18 13:13:06;;;;;;;2.97;2.15;;;;;;;;;;5006926;28;20279;-79
2022/04/18 13:15:33;;;;;;;3.25;2.30;;;;;;;;;;5016357;28;20224;-79
2022/04/18 13:18:08;;;;;;;2.90;2.10;;;;;;;;;;5031095;28;20212;-79
2022/04/18 13:20:34;;;;;;;2.90;2.40;;;;;;;;;;5016239;28;20650;-79
2022/04/18 13:23:00;;;;;;;2.83;2.05;;;;;;;;;;5006493;28;20217;-79
2022/04/18 13:25:26;;;;;;;2.65;2.22;;;;;;;;;;4997937;28;20296;-79
2022/04/18 13:27:54;;;;;;;2.40;2.20;;;;;;;;;;5020388;28;20784;-79
2022/04/18 13:30:23;;;;;;;2.45;2.05;;;;;;;;;;5015166;28;20221;-78
2022/04/18 13:32:49;;;;;;;3.33;1.83;;;;;;;;;;5008889;28;20313;-80
2022/04/18 13:35:17;;;;;;;2.75;2.38;;;;;;;;;;4997696;28;20245;-78
2022/04/18 13:37:48;;;;;;;2.30;2.10;;;;;;;;;;5016493;28;20217;-78
2022/04/18 13:40:16;;;;;;;3.30;2.22;;;;;;;;;;5000800;28;20224;-78
2022/04/18 13:42:44;;;;;;;2.10;1.90;;;;;;;;;;4996421;28;20229;-78
2022/04/18 13:45:11;;;;;;;2.13;1.92;;;;;;;;;;4990868;28;20224;-78
2022/04/18 13:47:43;;;;;;;2.92;1.85;;;;;;;;;;5001420;28;20217;-79
2022/04/18 13:50:14;;;;;;;2.53;2.03;;;;;;;;;;4998549;28;20225;-78
2022/04/18 13:52:40;;;;;;;1.92;1.70;;;;;;;;;;5004467;28;20275;-78
2022/04/18 13:55:07;;;;;;;1.90;1.50;;;;;;;;;;5018780;28;20221;-78
2022/04/18 13:57:32;;;;;;;2.40;1.90;;;;;;;;;;5021004;28;20251;-78
2022/04/18 13:59:58;;;;;;;1.95;1.73;;;;;;;;;;5016654;28;20220;-78
2022/04/18 14:02:23;;;;;;;2.58;1.65;;;;;;;;;;5029057;23;20300;-80
2022/04/18 14:04:49;;;;;;;2.42;1.98;;;;;;;;;;5029549;28;20212;-82
2022/04/18 14:07:15;;;;;;;2.95;2.00;;;;;;;;;;5015125;28;20204;-80
2022/04/18 14:09:49;;;;;;;3.30;1.92;;;;;;;;;;5016120;28;20228;-82
2022/04/18 14:12:15;;;;;;;2.08;1.50;;;;;;;;;;5030316;28;20228;-80
2022/04/18 14:20:26;;;;;;;2.08;1.88;;;;;;;;;;5024457;28;21782;-78
2022/04/18 14:22:54;;;;;;;2.47;1.95;;;;;;;;;;5010566;28;20285;-77
2022/04/18 14:25:22;;;;;;;2.65;1.75;;;;;;;;;;4974542;28;20216;-79
2022/04/18 14:27:47;;;;;;;2.15;1.77;;;;;;;;;;5033839;28;20228;-80
2022/04/18 14:30:16;;;;;;;3.10;1.77;;;;;;;;;;4990235;28;20217;-79
2022/04/18 14:32:42;;;;;;;3.17;1.85;;;;;;;;;;5033224;28;20263;-79
2022/04/18 14:35:08;;;;;;;1.70;1.60;;;;;;;;;;4999309;28;20225;-80
2022/04/18 14:37:36;;;;;;;2.45;1.90;;;;;;;;;;4986120;28;20220;-80
2022/04/18 14:40:01;;;;;;;2.10;1.90;;;;;;;;;;5012116;28;20304;-79
2022/04/18 14:42:28;;;;;;;2.03;1.83;;;;;;;;;;4997365;28;20675;-81
2022/04/18 14:44:54;;;;;;;2.13;1.80;;;;;;;;;;4970167;28;20232;-81
2022/04/18 14:47:20;;;;;;;1.80;1.70;;;;;;;;;;5039720;28;20728;-77
2022/04/18 14:50:13;;;;;;;3.08;1.70;;;;;;;;;;5030396;28;20217;-84
2022/04/18 14:52:38;;;;;;;1.80;1.70;;;;;;;;;;5019437;28;20233;-83
2022/04/18 14:55:04;;;;;;;2.95;1.90;;;;;;;;;;5020953;28;20640;-83
2022/04/18 14:57:30;;;;;;;3.20;1.70;;;;;;;;;;5029665;28;20233;-83
2022/04/18 14:59:55;;;;;;;2.08;1.50;;;;;;;;;;5010823;28;20241;-83
2022/04/18 15:02:21;;;;;;;1.90;1.40;;;;;;;;;;4989162;28;20341;-82
2022/04/18 15:05:37;;;;;;;2.10;1.48;;;;;;;;;;5015007;28;20224;-84
2022/04/18 15:11:36;;;;;;;1.80;1.67;;;;;;;;;;5046103;28;20243;-76
2022/04/18 15:14:07;;;;;;;2.40;1.33;;;;;;;;;;5012440;28;20224;-77
2022/04/18 15:16:33;;;;;;;1.48;1.30;;;;;;;;;;5028940;28;20223;-77
2022/04/18 15:18:58;;;;;;;2.17;1.20;;;;;;;;;;5049312;28;20254;-77
2022/04/18 15:21:27;;;;;;;1.50;1.40;;;;;;;;;;5018917;28;20227;-77
2022/04/18 15:24:02;;;;;;;1.88;1.55;;;;;;;;;;5028792;28;20227;-78
2022/04/18 15:26:36;;;;;;;2.28;1.55;;;;;;;;;;5032701;28;20719;-77
2022/04/18 15:29:02;;;;;;;1.85;1.38;;;;;;;;;;5019073;28;20224;-78
2022/04/18 15:34:12;;;;;;;1.98;1.42;;;;;;;;;;5024574;28;20627;-78
2022/04/18 15:36:39;;;;;;;1.65;1.52;;;;;;;;;;5012984;28;20215;-77
2022/04/18 15:39:05;;;;;;;1.73;1.42;;;;;;;;;;5017290;28;20250;-77
2022/04/18 15:41:31;;;;;;;1.30;1.20;;;;;;;;;;5048943;28;20219;-77
2022/04/18 15:44:04;;;;;;;2.00;1.73;;;;;;;;;;5012399;28;20220;-78